sensor_id;sensor_type;location;lat;lon;timestamp;temperature;humidity
42715;DHT22;28351;51.480;5.706;2023-08-01T00:01:56;16.50;99.90
42715;DHT22;28351;51.480;5.706;2023-08-01T00:04:22;16.50;99.90
42715;DHT22;28351;51.480;5.706;2023-08-01T00:06:47;16.50;99.90
42715;DHT22;28351;51.480;5.706;2023-08-01T00:09:13;16.40;99.90
42715;DHT22;28351;51.480;5.706;2023-08-01T00:11:39;16.50;99.90
42715;DHT22;28351;51.480;5.706;2023-08-01T00:14:04;16.50;99.90
42715;DHT22;28351;51.480;5.706;2023-08-01T00:16:30;16.50;99.90
42715;DHT22;28351;51.480;5.706;2023-08-01T00:18:57;16.50;99.90
42715;DHT22;28351;51.480;5.706;2023-08-01T00:21:23;16.40;99.90
42715;DHT22;28351;51.480;5.706;2023-08-01T00:23:48;16.40;99.90
42715;DHT22;28351;51.480;5.706;2023-08-01T00:26:14;16.40;99.90
42715;DHT22;28351;51.480;5.706;2023-08-01T00:28:40;16.40;99.90
42715;DHT22;28351;51.480;5.706;2023-08-01T00:31:08;16.40;99.90
42715;DHT22;28351;51.480;5.706;2023-08-01T00:33:34;16.30;99.90
42715;DHT22;28351;51.480;5.706;2023-08-01T00:36:00;16.30;99.90
42715;DHT22;28351;51.480;5.706;2023-08-01T00:38:26;16.30;99.90
42715;DHT22;28351;51.480;5.706;2023-08-01T00:40:51;16.30;99.90
42715;DHT22;28351;51.480;5.706;2023-08-01T00:43:17;16.30;99.90
42715;DHT22;28351;51.480;5.706;2023-08-01T00:45:43;16.40;99.90
42715;DHT22;28351;51.480;5.706;2023-08-01T00:48:10;16.30;99.90
42715;DHT22;28351;51.480;5.706;2023-08-01T00:50:36;16.30;99.90
42715;DHT22;28351;51.480;5.706;2023-08-01T00:53:01;16.30;99.90
42715;DHT22;28351;51.480;5.706;2023-08-01T00:55:29;16.30;99.90
42715;DHT22;28351;51.480;5.706;2023-08-01T00:57:55;16.30;99.90
42715;DHT22;28351;51.480;5.706;2023-08-01T01:00:21;16.30;99.90
42715;DHT22;28351;51.480;5.706;2023-08-01T01:02:47;16.30;99.90
42715;DHT22;28351;51.480;5.706;2023-08-01T01:05:13;16.20;99.90
42715;DHT22;28351;51.480;5.706;2023-08-01T01:07:39;16.20;99.90
42715;DHT22;28351;51.480;5.706;2023-08-01T01:10:05;16.20;99.90
42715;DHT22;28351;51.480;5.706;2023-08-01T01:12:30;16.10;99.90
42715;DHT22;28351;51.480;5.706;2023-08-01T01:14:56;16.10;99.90
42715;DHT22;28351;51.480;5.706;2023-08-01T01:17:22;16.00;99.90
42715;DHT22;28351;51.480;5.706;2023-08-01T01:19:47;16.00;99.90
42715;DHT22;28351;51.480;5.706;2023-08-01T01:22:13;16.00;99.90
42715;DHT22;28351;51.480;5.706;2023-08-01T01:24:41;15.90;99.90
42715;DHT22;28351;51.480;5.706;2023-08-01T01:27:08;15.90;99.90
42715;DHT22;28351;51.480;5.706;2023-08-01T01:29:34;15.90;99.90
42715;DHT22;28351;51.480;5.706;2023-08-01T01:32:03;15.80;99.90
42715;DHT22;28351;51.480;5.706;2023-08-01T01:34:30;15.80;99.90
42715;DHT22;28351;51.480;5.706;2023-08-01T01:36:55;15.80;99.90
42715;DHT22;28351;51.480;5.706;2023-08-01T01:39:21;15.70;99.90
42715;DHT22;28351;51.480;5.706;2023-08-01T01:41:47;15.70;99.90
42715;DHT22;28351;51.480;5.706;2023-08-01T01:44:12;15.70;99.90
42715;DHT22;28351;51.480;5.706;2023-08-01T01:46:38;15.70;99.90
42715;DHT22;28351;51.480;5.706;2023-08-01T01:49:03;15.70;99.90
42715;DHT22;28351;51.480;5.706;2023-08-01T01:51:30;15.80;99.90
42715;DHT22;28351;51.480;5.706;2023-08-01T01:53:55;15.70;99.90
42715;DHT22;28351;51.480;5.706;2023-08-01T01:56:21;15.70;99.90
42715;DHT22;28351;51.480;5.706;2023-08-01T01:58:47;15.60;99.90
42715;DHT22;28351;51.480;5.706;2023-08-01T02:01:12;15.60;99.90
42715;DHT22;28351;51.480;5.706;2023-08-01T02:03:38;15.60;99.90
42715;DHT22;28351;51.480;5.706;2023-08-01T02:06:04;15.60;99.90
42715;DHT22;28351;51.480;5.706;2023-08-01T02:08:30;15.50;99.90
42715;DHT22;28351;51.480;5.706;2023-08-01T02:10:55;15.50;99.90
42715;DHT22;28351;51.480;5.706;2023-08-01T02:13:24;15.50;99.90
42715;DHT22;28351;51.480;5.706;2023-08-01T02:15:49;15.50;99.90
42715;DHT22;28351;51.480;5.706;2023-08-01T02:18:15;15.50;99.90
42715;DHT22;28351;51.480;5.706;2023-08-01T02:20:41;15.40;99.90
42715;DHT22;28351;51.480;5.706;2023-08-01T02:23:06;15.40;99.90
42715;DHT22;28351;51.480;5.706;2023-08-01T02:25:32;15.40;99.90
42715;DHT22;28351;51.480;5.706;2023-08-01T02:27:58;15.30;99.90
42715;DHT22;28351;51.480;5.706;2023-08-01T02:30:23;15.30;99.90
42715;DHT22;28351;51.480;5.706;2023-08-01T02:32:49;15.40;99.90
42715;DHT22;28351;51.480;5.706;2023-08-01T02:35:14;15.40;99.90
42715;DHT22;28351;51.480;5.706;2023-08-01T02:37:40;15.40;99.90
42715;DHT22;28351;51.480;5.706;2023-08-01T02:40:08;15.40;99.90
42715;DHT22;28351;51.480;5.706;2023-08-01T02:42:34;15.30;99.90
42715;DHT22;28351;51.480;5.706;2023-08-01T02:44:59;15.40;99.90
42715;DHT22;28351;51.480;5.706;2023-08-01T02:47:25;15.30;99.90
42715;DHT22;28351;51.480;5.706;2023-08-01T02:49:51;15.30;99.90
42715;DHT22;28351;51.480;5.706;2023-08-01T02:52:16;15.30;99.90
42715;DHT22;28351;51.480;5.706;2023-08-01T02:54:42;15.20;99.90
42715;DHT22;28351;51.480;5.706;2023-08-01T02:57:07;15.20;99.90
42715;DHT22;28351;51.480;5.706;2023-08-01T02:59:33;15.30;99.90
42715;DHT22;28351;51.480;5.706;2023-08-01T03:01:59;15.20;99.90
42715;DHT22;28351;51.480;5.706;2023-08-01T03:04:24;15.30;99.90
42715;DHT22;28351;51.480;5.706;2023-08-01T03:06:50;15.20;99.90
42715;DHT22;28351;51.480;5.706;2023-08-01T03:09:16;15.30;99.90
42715;DHT22;28351;51.480;5.706;2023-08-01T03:11:41;15.30;99.90
42715;DHT22;28351;51.480;5.706;2023-08-01T03:14:07;15.30;99.90
42715;DHT22;28351;51.480;5.706;2023-08-01T03:16:33;15.30;99.90
42715;DHT22;28351;51.480;5.706;2023-08-01T03:18:59;15.30;99.90
42715;DHT22;28351;51.480;5.706;2023-08-01T03:21:33;15.30;99.90
42715;DHT22;28351;51.480;5.706;2023-08-01T03:24:00;15.40;99.90
42715;DHT22;28351;51.480;5.706;2023-08-01T03:26:26;15.30;99.90
42715;DHT22;28351;51.480;5.706;2023-08-01T03:28:54;15.40;99.90
42715;DHT22;28351;51.480;5.706;2023-08-01T03:31:21;15.30;99.90
42715;DHT22;28351;51.480;5.706;2023-08-01T03:33:47;15.30;99.90
42715;DHT22;28351;51.480;5.706;2023-08-01T03:36:12;15.30;99.90
42715;DHT22;28351;51.480;5.706;2023-08-01T03:38:39;15.30;99.90
42715;DHT22;28351;51.480;5.706;2023-08-01T03:41:04;15.40;99.90
42715;DHT22;28351;51.480;5.706;2023-08-01T03:43:30;15.40;99.90
42715;DHT22;28351;51.480;5.706;2023-08-01T03:45:56;15.40;99.90
42715;DHT22;28351;51.480;5.706;2023-08-01T03:48:21;15.40;99.90
42715;DHT22;28351;51.480;5.706;2023-08-01T03:50:47;15.40;99.90
42715;DHT22;28351;51.480;5.706;2023-08-01T03:53:13;15.40;99.90
42715;DHT22;28351;51.480;5.706;2023-08-01T03:55:39;15.40;99.90
42715;DHT22;28351;51.480;5.706;2023-08-01T03:58:05;15.30;99.90
42715;DHT22;28351;51.480;5.706;2023-08-01T04:00:30;15.30;99.90
42715;DHT22;28351;51.480;5.706;2023-08-01T04:02:59;15.40;99.90
42715;DHT22;28351;51.480;5.706;2023-08-01T04:05:25;15.40;99.90
42715;DHT22;28351;51.480;5.706;2023-08-01T04:07:50;15.40;99.90
42715;DHT22;28351;51.480;5.706;2023-08-01T04:10:16;15.40;99.90
42715;DHT22;28351;51.480;5.706;2023-08-01T04:12:41;15.40;99.90
42715;DHT22;28351;51.480;5.706;2023-08-01T04:15:10;15.40;99.90
42715;DHT22;28351;51.480;5.706;2023-08-01T04:17:35;15.40;99.90
42715;DHT22;28351;51.480;5.706;2023-08-01T04:20:01;15.40;99.90
42715;DHT22;28351;51.480;5.706;2023-08-01T04:22:27;15.40;99.90
42715;DHT22;28351;51.480;5.706;2023-08-01T04:24:52;15.50;99.90
42715;DHT22;28351;51.480;5.706;2023-08-01T04:27:18;15.50;99.90
42715;DHT22;28351;51.480;5.706;2023-08-01T04:29:43;15.40;99.90
42715;DHT22;28351;51.480;5.706;2023-08-01T04:32:09;15.40;99.90
42715;DHT22;28351;51.480;5.706;2023-08-01T04:34:38;15.40;99.90
42715;DHT22;28351;51.480;5.706;2023-08-01T04:37:04;15.40;99.90
42715;DHT22;28351;51.480;5.706;2023-08-01T04:39:29;15.40;99.90
42715;DHT22;28351;51.480;5.706;2023-08-01T04:41:55;15.40;99.90
42715;DHT22;28351;51.480;5.706;2023-08-01T04:44:20;15.40;99.90
42715;DHT22;28351;51.480;5.706;2023-08-01T04:46:47;15.40;99.90
42715;DHT22;28351;51.480;5.706;2023-08-01T04:49:13;15.40;99.90
42715;DHT22;28351;51.480;5.706;2023-08-01T04:51:39;15.40;99.90
42715;DHT22;28351;51.480;5.706;2023-08-01T04:54:04;15.40;99.90
42715;DHT22;28351;51.480;5.706;2023-08-01T04:56:30;15.40;99.90
42715;DHT22;28351;51.480;5.706;2023-08-01T04:58:55;15.50;99.90
42715;DHT22;28351;51.480;5.706;2023-08-01T05:01:21;15.60;99.90
42715;DHT22;28351;51.480;5.706;2023-08-01T05:03:46;15.60;99.90
42715;DHT22;28351;51.480;5.706;2023-08-01T05:06:12;15.60;99.90
42715;DHT22;28351;51.480;5.706;2023-08-01T05:08:38;15.70;99.90
42715;DHT22;28351;51.480;5.706;2023-08-01T05:11:03;15.70;99.90
42715;DHT22;28351;51.480;5.706;2023-08-01T05:13:29;15.70;99.90
42715;DHT22;28351;51.480;5.706;2023-08-01T05:15:54;15.70;99.90
42715;DHT22;28351;51.480;5.706;2023-08-01T05:18:20;15.80;99.90
42715;DHT22;28351;51.480;5.706;2023-08-01T05:20:46;15.80;99.90
42715;DHT22;28351;51.480;5.706;2023-08-01T05:23:11;15.90;99.90
42715;DHT22;28351;51.480;5.706;2023-08-01T05:25:37;15.80;99.90
42715;DHT22;28351;51.480;5.706;2023-08-01T05:28:02;15.80;99.90
42715;DHT22;28351;51.480;5.706;2023-08-01T05:30:28;15.80;99.90
42715;DHT22;28351;51.480;5.706;2023-08-01T05:32:54;15.80;99.90
42715;DHT22;28351;51.480;5.706;2023-08-01T05:35:20;15.80;99.90
42715;DHT22;28351;51.480;5.706;2023-08-01T05:37:46;15.80;99.90
42715;DHT22;28351;51.480;5.706;2023-08-01T05:40:12;15.80;99.90
42715;DHT22;28351;51.480;5.706;2023-08-01T05:42:37;15.80;99.90
42715;DHT22;28351;51.480;5.706;2023-08-01T05:45:03;15.90;99.90
42715;DHT22;28351;51.480;5.706;2023-08-01T05:47:30;15.80;99.90
42715;DHT22;28351;51.480;5.706;2023-08-01T05:49:55;15.90;99.90
42715;DHT22;28351;51.480;5.706;2023-08-01T05:52:21;15.90;99.90
42715;DHT22;28351;51.480;5.706;2023-08-01T05:54:46;15.80;99.90
42715;DHT22;28351;51.480;5.706;2023-08-01T05:57:12;15.80;99.90
42715;DHT22;28351;51.480;5.706;2023-08-01T05:59:38;15.80;99.90
42715;DHT22;28351;51.480;5.706;2023-08-01T06:02:03;15.70;99.90
42715;DHT22;28351;51.480;5.706;2023-08-01T06:04:29;15.80;99.90
42715;DHT22;28351;51.480;5.706;2023-08-01T06:06:55;15.90;99.90
42715;DHT22;28351;51.480;5.706;2023-08-01T06:09:21;16.10;99.90
42715;DHT22;28351;51.480;5.706;2023-08-01T06:11:47;16.20;99.90
42715;DHT22;28351;51.480;5.706;2023-08-01T06:14:13;16.40;99.90
42715;DHT22;28351;51.480;5.706;2023-08-01T06:16:38;16.60;99.90
42715;DHT22;28351;51.480;5.706;2023-08-01T06:19:04;16.60;99.90
42715;DHT22;28351;51.480;5.706;2023-08-01T06:21:29;16.50;99.90
42715;DHT22;28351;51.480;5.706;2023-08-01T06:23:55;16.50;99.90
42715;DHT22;28351;51.480;5.706;2023-08-01T06:26:21;16.70;99.90
42715;DHT22;28351;51.480;5.706;2023-08-01T06:28:46;16.80;99.90
42715;DHT22;28351;51.480;5.706;2023-08-01T06:31:12;16.70;99.90
42715;DHT22;28351;51.480;5.706;2023-08-01T06:33:37;16.70;99.90
42715;DHT22;28351;51.480;5.706;2023-08-01T06:36:03;16.70;99.90
42715;DHT22;28351;51.480;5.706;2023-08-01T06:38:29;16.80;99.90
42715;DHT22;28351;51.480;5.706;2023-08-01T06:40:55;16.90;99.90
42715;DHT22;28351;51.480;5.706;2023-08-01T06:43:20;16.90;99.90
42715;DHT22;28351;51.480;5.706;2023-08-01T06:45:46;16.90;99.90
42715;DHT22;28351;51.480;5.706;2023-08-01T06:48:11;17.00;99.90
42715;DHT22;28351;51.480;5.706;2023-08-01T06:50:37;17.00;99.90
42715;DHT22;28351;51.480;5.706;2023-08-01T06:53:02;16.90;99.90
42715;DHT22;28351;51.480;5.706;2023-08-01T06:55:28;16.80;99.90
42715;DHT22;28351;51.480;5.706;2023-08-01T06:57:54;16.70;99.90
42715;DHT22;28351;51.480;5.706;2023-08-01T07:00:19;16.90;99.90
42715;DHT22;28351;51.480;5.706;2023-08-01T07:02:45;16.80;99.90
42715;DHT22;28351;51.480;5.706;2023-08-01T07:05:10;16.80;99.90
42715;DHT22;28351;51.480;5.706;2023-08-01T07:07:36;16.90;99.90
42715;DHT22;28351;51.480;5.706;2023-08-01T07:10:02;17.00;99.90
42715;DHT22;28351;51.480;5.706;2023-08-01T07:12:27;17.10;99.90
42715;DHT22;28351;51.480;5.706;2023-08-01T07:14:53;17.20;99.90
42715;DHT22;28351;51.480;5.706;2023-08-01T07:17:19;17.20;99.90
42715;DHT22;28351;51.480;5.706;2023-08-01T07:19:44;17.20;99.90
42715;DHT22;28351;51.480;5.706;2023-08-01T07:22:10;17.40;99.90
42715;DHT22;28351;51.480;5.706;2023-08-01T07:24:36;17.40;99.90
42715;DHT22;28351;51.480;5.706;2023-08-01T07:27:01;17.70;99.90
42715;DHT22;28351;51.480;5.706;2023-08-01T07:29:27;17.80;99.90
42715;DHT22;28351;51.480;5.706;2023-08-01T07:31:54;17.60;99.90
42715;DHT22;28351;51.480;5.706;2023-08-01T07:34:19;17.60;99.90
42715;DHT22;28351;51.480;5.706;2023-08-01T07:36:47;17.50;99.90
42715;DHT22;28351;51.480;5.706;2023-08-01T07:39:13;17.70;99.90
42715;DHT22;28351;51.480;5.706;2023-08-01T07:41:41;17.80;99.90
42715;DHT22;28351;51.480;5.706;2023-08-01T07:44:07;17.80;99.90
42715;DHT22;28351;51.480;5.706;2023-08-01T07:46:33;17.60;99.90
42715;DHT22;28351;51.480;5.706;2023-08-01T07:48:59;17.50;99.90
42715;DHT22;28351;51.480;5.706;2023-08-01T07:51:27;17.60;99.90
42715;DHT22;28351;51.480;5.706;2023-08-01T07:53:54;17.70;99.90
42715;DHT22;28351;51.480;5.706;2023-08-01T07:56:20;17.70;99.90
42715;DHT22;28351;51.480;5.706;2023-08-01T07:58:46;17.90;99.90
42715;DHT22;28351;51.480;5.706;2023-08-01T08:01:12;17.90;99.90
42715;DHT22;28351;51.480;5.706;2023-08-01T08:03:37;18.30;99.90
42715;DHT22;28351;51.480;5.706;2023-08-01T08:06:03;18.60;99.90
42715;DHT22;28351;51.480;5.706;2023-08-01T08:08:30;18.60;99.90
42715;DHT22;28351;51.480;5.706;2023-08-01T08:10:55;18.50;99.90
42715;DHT22;28351;51.480;5.706;2023-08-01T08:13:22;18.50;99.90
42715;DHT22;28351;51.480;5.706;2023-08-01T08:15:48;18.70;99.90
42715;DHT22;28351;51.480;5.706;2023-08-01T08:18:13;18.80;99.90
42715;DHT22;28351;51.480;5.706;2023-08-01T08:20:43;18.90;99.90
42715;DHT22;28351;51.480;5.706;2023-08-01T08:23:10;18.70;99.90
42715;DHT22;28351;51.480;5.706;2023-08-01T08:25:37;18.60;99.90
42715;DHT22;28351;51.480;5.706;2023-08-01T08:28:02;18.50;99.90
42715;DHT22;28351;51.480;5.706;2023-08-01T08:30:28;18.50;99.90
42715;DHT22;28351;51.480;5.706;2023-08-01T08:32:54;18.60;99.90
42715;DHT22;28351;51.480;5.706;2023-08-01T08:35:19;18.60;99.90
42715;DHT22;28351;51.480;5.706;2023-08-01T08:37:45;18.50;99.90
42715;DHT22;28351;51.480;5.706;2023-08-01T08:40:12;18.60;99.90
42715;DHT22;28351;51.480;5.706;2023-08-01T08:42:39;18.80;99.90
42715;DHT22;28351;51.480;5.706;2023-08-01T08:45:06;18.80;99.90
42715;DHT22;28351;51.480;5.706;2023-08-01T08:47:36;18.60;99.90
42715;DHT22;28351;51.480;5.706;2023-08-01T08:50:03;18.60;99.90
42715;DHT22;28351;51.480;5.706;2023-08-01T08:52:32;18.80;99.90
42715;DHT22;28351;51.480;5.706;2023-08-01T08:54:58;19.20;99.90
42715;DHT22;28351;51.480;5.706;2023-08-01T08:57:23;19.60;99.90
42715;DHT22;28351;51.480;5.706;2023-08-01T08:59:50;19.60;99.90
42715;DHT22;28351;51.480;5.706;2023-08-01T09:02:16;19.80;99.90
42715;DHT22;28351;51.480;5.706;2023-08-01T09:04:42;19.70;99.90
42715;DHT22;28351;51.480;5.706;2023-08-01T09:07:09;19.70;99.90
42715;DHT22;28351;51.480;5.706;2023-08-01T09:09:36;19.50;99.90
42715;DHT22;28351;51.480;5.706;2023-08-01T09:12:02;18.90;99.90
42715;DHT22;28351;51.480;5.706;2023-08-01T09:14:28;18.60;99.90
42715;DHT22;28351;51.480;5.706;2023-08-01T09:16:54;18.20;99.90
42715;DHT22;28351;51.480;5.706;2023-08-01T09:19:24;17.80;99.90
42715;DHT22;28351;51.480;5.706;2023-08-01T09:21:50;17.60;99.90
42715;DHT22;28351;51.480;5.706;2023-08-01T09:24:20;17.70;99.90
42715;DHT22;28351;51.480;5.706;2023-08-01T09:26:48;17.70;99.90
42715;DHT22;28351;51.480;5.706;2023-08-01T09:29:16;17.80;99.90
42715;DHT22;28351;51.480;5.706;2023-08-01T09:31:43;17.70;99.90
42715;DHT22;28351;51.480;5.706;2023-08-01T09:34:22;17.70;99.90
42715;DHT22;28351;51.480;5.706;2023-08-01T09:36:49;17.60;99.90
42715;DHT22;28351;51.480;5.706;2023-08-01T09:39:19;17.30;99.90
42715;DHT22;28351;51.480;5.706;2023-08-01T09:41:46;17.10;99.90
42715;DHT22;28351;51.480;5.706;2023-08-01T09:44:16;16.90;99.90
42715;DHT22;28351;51.480;5.706;2023-08-01T09:46:41;16.60;99.90
42715;DHT22;28351;51.480;5.706;2023-08-01T09:49:12;16.50;99.90
42715;DHT22;28351;51.480;5.706;2023-08-01T09:51:50;16.50;99.90
42715;DHT22;28351;51.480;5.706;2023-08-01T09:54:17;16.40;99.90
42715;DHT22;28351;51.480;5.706;2023-08-01T09:56:47;16.80;99.90
42715;DHT22;28351;51.480;5.706;2023-08-01T09:59:24;17.30;99.90
42715;DHT22;28351;51.480;5.706;2023-08-01T10:01:51;17.70;99.90
42715;DHT22;28351;51.480;5.706;2023-08-01T10:04:25;17.50;99.90
42715;DHT22;28351;51.480;5.706;2023-08-01T10:06:56;17.20;99.90
42715;DHT22;28351;51.480;5.706;2023-08-01T10:09:23;17.00;99.90
42715;DHT22;28351;51.480;5.706;2023-08-01T10:11:49;17.00;99.90
42715;DHT22;28351;51.480;5.706;2023-08-01T10:14:17;17.00;99.90
42715;DHT22;28351;51.480;5.706;2023-08-01T10:16:43;17.10;99.90
42715;DHT22;28351;51.480;5.706;2023-08-01T10:19:09;17.10;99.90
42715;DHT22;28351;51.480;5.706;2023-08-01T10:21:35;17.20;99.90
42715;DHT22;28351;51.480;5.706;2023-08-01T10:24:03;17.30;99.90
42715;DHT22;28351;51.480;5.706;2023-08-01T10:26:30;17.80;99.90
42715;DHT22;28351;51.480;5.706;2023-08-01T10:28:56;18.20;99.90
42715;DHT22;28351;51.480;5.706;2023-08-01T10:31:24;18.50;99.90
42715;DHT22;28351;51.480;5.706;2023-08-01T10:33:50;18.70;99.90
42715;DHT22;28351;51.480;5.706;2023-08-01T10:36:19;19.10;99.90
42715;DHT22;28351;51.480;5.706;2023-08-01T10:41:30;18.70;99.90
42715;DHT22;28351;51.480;5.706;2023-08-01T10:44:09;18.50;99.90
42715;DHT22;28351;51.480;5.706;2023-08-01T10:47:00;18.40;99.90
42715;DHT22;28351;51.480;5.706;2023-08-01T10:49:37;18.50;99.90
42715;DHT22;28351;51.480;5.706;2023-08-01T10:52:23;18.70;99.90
42715;DHT22;28351;51.480;5.706;2023-08-01T10:54:59;18.70;99.90
42715;DHT22;28351;51.480;5.706;2023-08-01T10:57:27;18.50;99.90
42715;DHT22;28351;51.480;5.706;2023-08-01T10:59:52;18.20;99.90
42715;DHT22;28351;51.480;5.706;2023-08-01T11:02:21;18.00;99.90
42715;DHT22;28351;51.480;5.706;2023-08-01T11:05:00;17.50;99.90
42715;DHT22;28351;51.480;5.706;2023-08-01T11:07:26;17.00;99.90
42715;DHT22;28351;51.480;5.706;2023-08-01T11:10:09;16.80;99.90
42715;DHT22;28351;51.480;5.706;2023-08-01T11:12:44;16.70;99.90
42715;DHT22;28351;51.480;5.706;2023-08-01T11:15:14;16.90;99.90
42715;DHT22;28351;51.480;5.706;2023-08-01T11:17:41;17.60;99.90
42715;DHT22;28351;51.480;5.706;2023-08-01T11:20:09;18.10;99.90
42715;DHT22;28351;51.480;5.706;2023-08-01T11:22:36;18.90;99.90
42715;DHT22;28351;51.480;5.706;2023-08-01T11:25:02;19.80;99.90
42715;DHT22;28351;51.480;5.706;2023-08-01T11:27:28;19.90;99.90
42715;DHT22;28351;51.480;5.706;2023-08-01T11:29:54;19.70;99.90
42715;DHT22;28351;51.480;5.706;2023-08-01T11:32:21;19.60;99.90
42715;DHT22;28351;51.480;5.706;2023-08-01T11:34:47;19.80;99.90
42715;DHT22;28351;51.480;5.706;2023-08-01T11:37:14;19.80;99.90
42715;DHT22;28351;51.480;5.706;2023-08-01T11:39:40;20.00;99.90
42715;DHT22;28351;51.480;5.706;2023-08-01T11:42:06;20.30;99.90
42715;DHT22;28351;51.480;5.706;2023-08-01T11:44:32;21.10;99.90
42715;DHT22;28351;51.480;5.706;2023-08-01T11:46:58;20.30;99.90
42715;DHT22;28351;51.480;5.706;2023-08-01T11:49:23;20.20;99.90
42715;DHT22;28351;51.480;5.706;2023-08-01T11:51:49;21.20;99.90
42715;DHT22;28351;51.480;5.706;2023-08-01T11:54:15;21.50;99.90
42715;DHT22;28351;51.480;5.706;2023-08-01T11:56:42;20.70;99.90
42715;DHT22;28351;51.480;5.706;2023-08-01T11:59:15;19.40;99.90
42715;DHT22;28351;51.480;5.706;2023-08-01T12:01:43;18.50;99.90
42715;DHT22;28351;51.480;5.706;2023-08-01T12:04:10;18.00;99.90
42715;DHT22;28351;51.480;5.706;2023-08-01T12:06:36;18.40;99.90
42715;DHT22;28351;51.480;5.706;2023-08-01T12:09:11;20.50;99.90
42715;DHT22;28351;51.480;5.706;2023-08-01T12:11:38;22.10;99.90
42715;DHT22;28351;51.480;5.706;2023-08-01T12:14:14;21.30;99.90
42715;DHT22;28351;51.480;5.706;2023-08-01T12:16:41;21.10;99.90
42715;DHT22;28351;51.480;5.706;2023-08-01T12:19:08;21.50;99.90
42715;DHT22;28351;51.480;5.706;2023-08-01T12:21:35;22.20;99.90
42715;DHT22;28351;51.480;5.706;2023-08-01T12:24:01;23.70;99.90
42715;DHT22;28351;51.480;5.706;2023-08-01T12:26:27;24.50;99.90
42715;DHT22;28351;51.480;5.706;2023-08-01T12:28:53;24.90;99.90
42715;DHT22;28351;51.480;5.706;2023-08-01T12:31:19;25.60;99.90
42715;DHT22;28351;51.480;5.706;2023-08-01T12:33:45;25.60;99.90
42715;DHT22;28351;51.480;5.706;2023-08-01T12:36:11;25.20;99.90
42715;DHT22;28351;51.480;5.706;2023-08-01T12:38:37;25.50;99.90
42715;DHT22;28351;51.480;5.706;2023-08-01T12:41:03;25.00;99.90
42715;DHT22;28351;51.480;5.706;2023-08-01T12:43:28;24.50;99.90
42715;DHT22;28351;51.480;5.706;2023-08-01T12:45:54;25.30;99.90
42715;DHT22;28351;51.480;5.706;2023-08-01T12:48:21;25.10;99.90
42715;DHT22;28351;51.480;5.706;2023-08-01T12:50:47;25.40;99.90
42715;DHT22;28351;51.480;5.706;2023-08-01T12:53:14;26.20;98.70
42715;DHT22;28351;51.480;5.706;2023-08-01T12:55:43;26.60;98.50
42715;DHT22;28351;51.480;5.706;2023-08-01T12:58:09;23.80;99.90
42715;DHT22;28351;51.480;5.706;2023-08-01T13:00:35;24.60;99.90
42715;DHT22;28351;51.480;5.706;2023-08-01T13:03:00;25.40;99.70
42715;DHT22;28351;51.480;5.706;2023-08-01T13:05:26;25.90;98.40
42715;DHT22;28351;51.480;5.706;2023-08-01T13:07:51;26.30;98.20
42715;DHT22;28351;51.480;5.706;2023-08-01T13:10:17;25.70;98.10
42715;DHT22;28351;51.480;5.706;2023-08-01T13:12:43;25.70;97.90
42715;DHT22;28351;51.480;5.706;2023-08-01T13:15:09;25.30;98.90
42715;DHT22;28351;51.480;5.706;2023-08-01T13:17:35;25.10;99.90
42715;DHT22;28351;51.480;5.706;2023-08-01T13:20:00;25.40;99.90
42715;DHT22;28351;51.480;5.706;2023-08-01T13:22:26;25.90;98.90
42715;DHT22;28351;51.480;5.706;2023-08-01T13:24:51;25.30;99.40
42715;DHT22;28351;51.480;5.706;2023-08-01T13:27:17;25.00;97.40
42715;DHT22;28351;51.480;5.706;2023-08-01T13:29:42;23.30;99.90
42715;DHT22;28351;51.480;5.706;2023-08-01T13:32:08;23.00;99.90
42715;DHT22;28351;51.480;5.706;2023-08-01T13:34:34;23.90;99.90
42715;DHT22;28351;51.480;5.706;2023-08-01T13:36:59;24.10;99.60
42715;DHT22;28351;51.480;5.706;2023-08-01T13:39:25;23.90;98.50
42715;DHT22;28351;51.480;5.706;2023-08-01T13:41:51;23.80;98.20
42715;DHT22;28351;51.480;5.706;2023-08-01T13:44:16;23.80;99.00
42715;DHT22;28351;51.480;5.706;2023-08-01T13:46:43;24.30;99.90
42715;DHT22;28351;51.480;5.706;2023-08-01T13:49:08;25.10;99.90
42715;DHT22;28351;51.480;5.706;2023-08-01T13:51:34;25.90;98.10
42715;DHT22;28351;51.480;5.706;2023-08-01T13:54:00;26.90;97.10
42715;DHT22;28351;51.480;5.706;2023-08-01T13:56:26;27.80;98.30
42715;DHT22;28351;51.480;5.706;2023-08-01T13:58:51;27.90;94.80
42715;DHT22;28351;51.480;5.706;2023-08-01T14:01:17;27.00;94.80
42715;DHT22;28351;51.480;5.706;2023-08-01T14:03:46;27.10;94.80
42715;DHT22;28351;51.480;5.706;2023-08-01T14:06:13;26.80;93.80
42715;DHT22;28351;51.480;5.706;2023-08-01T14:08:40;26.80;94.70
42715;DHT22;28351;51.480;5.706;2023-08-01T14:11:08;26.90;94.30
42715;DHT22;28351;51.480;5.706;2023-08-01T14:13:34;27.50;93.80
42715;DHT22;28351;51.480;5.706;2023-08-01T14:16:01;26.40;94.20
42715;DHT22;28351;51.480;5.706;2023-08-01T14:18:28;25.10;96.10
42715;DHT22;28351;51.480;5.706;2023-08-01T14:20:53;25.90;96.60
42715;DHT22;28351;51.480;5.706;2023-08-01T14:23:19;26.90;95.90
42715;DHT22;28351;51.480;5.706;2023-08-01T14:25:45;27.30;96.10
42715;DHT22;28351;51.480;5.706;2023-08-01T14:28:11;27.50;95.00
42715;DHT22;28351;51.480;5.706;2023-08-01T14:30:37;26.40;95.80
42715;DHT22;28351;51.480;5.706;2023-08-01T14:33:06;27.80;96.10
42715;DHT22;28351;51.480;5.706;2023-08-01T14:35:32;26.80;94.70
42715;DHT22;28351;51.480;5.706;2023-08-01T14:37:59;27.60;92.90
42715;DHT22;28351;51.480;5.706;2023-08-01T14:40:25;28.00;93.70
42715;DHT22;28351;51.480;5.706;2023-08-01T14:42:51;28.00;92.20
42715;DHT22;28351;51.480;5.706;2023-08-01T14:45:17;28.40;90.80
42715;DHT22;28351;51.480;5.706;2023-08-01T14:47:44;28.00;90.70
42715;DHT22;28351;51.480;5.706;2023-08-01T14:50:11;27.00;90.10
42715;DHT22;28351;51.480;5.706;2023-08-01T14:52:37;26.70;92.00
42715;DHT22;28351;51.480;5.706;2023-08-01T14:55:03;26.70;91.70
42715;DHT22;28351;51.480;5.706;2023-08-01T14:57:29;26.00;92.20
42715;DHT22;28351;51.480;5.706;2023-08-01T14:59:54;27.20;92.60
42715;DHT22;28351;51.480;5.706;2023-08-01T15:02:20;27.10;91.70
42715;DHT22;28351;51.480;5.706;2023-08-01T15:04:50;26.20;90.80
42715;DHT22;28351;51.480;5.706;2023-08-01T15:07:17;25.30;90.20
42715;DHT22;28351;51.480;5.706;2023-08-01T15:09:43;24.50;91.90
42715;DHT22;28351;51.480;5.706;2023-08-01T15:12:09;25.30;91.90
42715;DHT22;28351;51.480;5.706;2023-08-01T15:14:34;26.00;90.70
42715;DHT22;28351;51.480;5.706;2023-08-01T15:17:00;26.50;90.50
42715;DHT22;28351;51.480;5.706;2023-08-01T15:20:40;26.60;91.10
42715;DHT22;28351;51.480;5.706;2023-08-01T15:23:07;26.90;91.30
42715;DHT22;28351;51.480;5.706;2023-08-01T15:25:34;27.60;91.10
42715;DHT22;28351;51.480;5.706;2023-08-01T15:27:59;27.50;91.90
42715;DHT22;28351;51.480;5.706;2023-08-01T15:30:25;28.10;89.60